Time;durP1;ratioP1;P1;durP2;ratioP2;P2;SDS_P1;SDS_P2;PMS_P1;PMS_P2;Temp;Humidity;BMP_temperature;BMP_pressure;BME280_temperature;BME280_humidity;BME280_pressure;Samples;Min_cycle;Max_cycle;Signal;HPM_P1;HPM_P2
2021/12/26 00:09:50;;;;;;;374.20;151.30;;;;;;;-11.14;81.19;98401.84;421676;1312;98375;-39
2021/12/26 00:19:54;;;;;;;374.80;156.90;;;;;;;-11.27;80.63;98390.08;420783;1315;109512;-40
2021/12/26 00:29:58;;;;;;;374.40;151.60;;;;;;;-11.38;80.66;98386.19;420562;1315;108942;-39
2021/12/26 00:40:03;;;;;;;379.30;165.10;;;;;;;-11.38;80.75;98375.86;420652;1315;97926;-40
2021/12/26 00:50:10;;;;;;;371.60;155.00;;;;;;;-11.47;80.58;98376.38;420630;1312;109061;-40
2021/12/26 01:00:16;;;;;;;363.10;152.80;;;;;;;-11.62;80.76;98374.98;420643;1309;98269;-39
2021/12/26 01:10:22;;;;;;;355.60;155.50;;;;;;;-11.60;80.84;98379.45;420648;1312;111615;-41
2021/12/26 01:30:41;;;;;;;444.60;188.70;;;;;;;-11.93;80.69;98379.23;420705;1313;98304;-39
2021/12/26 01:40:50;;;;;;;468.60;192.70;;;;;;;-11.92;80.91;98378.78;420736;1312;108782;-40
2021/12/26 01:50:54;;;;;;;507.40;205.90;;;;;;;-11.94;80.55;98381.45;420715;1316;97963;-39
2021/12/26 02:01:02;;;;;;;492.60;209.30;;;;;;;-12.09;80.62;98379.66;420729;1311;111709;-40
2021/12/26 02:11:06;;;;;;;441.20;174.70;;;;;;;-12.18;80.46;98377.02;420597;1315;107337;-40
2021/12/26 02:31:18;;;;;;;325.10;134.60;;;;;;;-12.12;80.83;98367.63;420675;1314;109052;-40
2021/12/26 02:41:26;;;;;;;331.50;132.50;;;;;;;-12.00;80.99;98363.50;420739;1310;97945;-39
2021/12/26 02:51:30;;;;;;;345.90;145.80;;;;;;;-11.93;81.03;98366.80;420748;1312;111153;-39
2021/12/26 03:01:33;;;;;;;361.60;147.30;;;;;;;-12.02;80.91;98372.63;420760;1312;108886;-39
2021/12/26 03:11:44;;;;;;;371.00;143.70;;;;;;;-12.10;80.57;98381.41;420639;1311;97971;-39
2021/12/26 03:21:50;;;;;;;334.60;136.00;;;;;;;-12.28;80.23;98391.23;420483;1310;108956;-40
2021/12/26 03:31:54;;;;;;;295.60;117.70;;;;;;;-12.40;80.27;98392.92;420760;1309;98460;-39
2021/12/26 03:41:58;;;;;;;244.70;99.00;;;;;;;-12.47;80.57;98397.98;420638;1312;111078;-39
2021/12/26 03:52:02;;;;;;;262.40;104.30;;;;;;;-12.58;80.51;98398.09;420533;1311;108561;-39
2021/12/26 04:02:06;;;;;;;242.10;100.50;;;;;;;-12.64;80.67;98398.46;420597;1311;97999;-39
2021/12/26 04:12:11;;;;;;;217.20;91.10;;;;;;;-12.68;80.28;98408.05;420482;1310;109476;-40
2021/12/26 04:22:15;;;;;;;210.20;84.60;;;;;;;-12.73;80.72;98415.14;420704;1310;96770;-39
2021/12/26 04:32:19;;;;;;;222.90;86.80;;;;;;;-12.66;80.60;98416.11;420780;1309;111001;-41
2021/12/26 04:42:23;;;;;;;205.50;86.50;;;;;;;-12.68;80.56;98415.70;420736;1309;107811;-39
2021/12/26 04:52:27;;;;;;;231.80;89.30;;;;;;;-12.64;80.67;98418.20;420674;1309;97552;-40
2021/12/26 05:12:36;;;;;;;255.00;98.50;;;;;;;-12.63;80.54;98425.58;420626;1309;97921;-39
2021/12/26 05:22:44;;;;;;;246.10;97.30;;;;;;;-12.57;80.64;98424.85;420541;1309;111279;-39
2021/12/26 05:32:51;;;;;;;239.20;95.90;;;;;;;-12.54;80.64;98434.39;420295;1312;108774;-39
2021/12/26 05:42:55;;;;;;;220.90;92.90;;;;;;;-12.54;80.66;98444.91;420509;1311;96939;-39
2021/12/26 05:52:59;;;;;;;211.90;86.20;;;;;;;-12.58;80.74;98446.49;420624;1311;108962;-38
2021/12/26 06:03:02;;;;;;;230.80;92.90;;;;;;;-12.69;80.51;98447.66;420555;1310;97481;-39
2021/12/26 06:13:06;;;;;;;216.00;92.40;;;;;;;-12.69;80.64;98445.98;420562;1309;111149;-39
2021/12/26 06:23:12;;;;;;;240.40;96.90;;;;;;;-12.61;80.64;98452.30;420896;1309;108805;-40
2021/12/26 06:33:16;;;;;;;252.90;101.40;;;;;;;-12.66;80.32;98464.66;421037;1309;96740;-39
2021/12/26 06:43:20;;;;;;;267.90;108.20;;;;;;;-12.71;80.45;98467.11;420408;1312;107289;-39
2021/12/26 06:53:24;;;;;;;244.30;105.40;;;;;;;-12.82;80.31;98476.90;420375;1312;97554;-39
2021/12/26 07:03:28;;;;;;;234.60;96.20;;;;;;;-12.62;81.08;98481.55;421137;1310;110267;-40
2021/12/26 07:13:31;;;;;;;214.50;88.10;;;;;;;-12.40;80.66;98488.05;417254;1310;5376612;-39
2021/12/26 07:23:35;;;;;;;222.60;88.20;;;;;;;-12.27;80.79;98497.86;421009;1310;97939;-42
2021/12/26 07:43:43;;;;;;;221.10;91.10;;;;;;;-11.90;80.95;98514.63;420386;1312;97855;-39
2021/12/26 08:03:50;;;;;;;230.60;95.00;;;;;;;-10.78;81.69;98521.70;421127;1310;108831;-39
2021/12/26 08:13:53;;;;;;;231.40;95.10;;;;;;;-10.24;81.17;98523.09;421263;1310;96686;-40
2021/12/26 08:23:57;;;;;;;206.90;82.20;;;;;;;-9.31;82.15;98516.55;421157;1312;109471;-38
2021/12/26 08:34:01;;;;;;;224.20;83.30;;;;;;;-6.84;82.62;98506.95;421430;1311;98312;-40
2021/12/26 08:44:05;;;;;;;232.40;79.90;;;;;;;-5.41;81.82;98502.22;421292;1310;111224;-40
2021/12/26 08:54:10;;;;;;;240.50;89.50;;;;;;;-4.66;81.51;98503.20;421329;1309;97933;-41
2021/12/26 09:04:14;;;;;;;245.90;91.00;;;;;;;-4.17;81.10;98501.23;421439;1309;98582;-40
2021/12/26 09:14:19;;;;;;;222.10;89.10;;;;;;;-4.45;80.40;98504.41;421101;1312;98062;-39
2021/12/26 09:24:23;;;;;;;218.00;86.20;;;;;;;-4.56;80.65;98504.79;421798;1309;108924;-39
2021/12/26 09:34:51;;;;;;;146.10;60.90;;;;;;;-4.66;80.55;98508.75;421634;1309;98067;-40
2021/12/26 09:44:58;;;;;;;128.60;52.70;;;;;;;-4.91;80.53;98508.03;421888;1309;98107;-39
2021/12/26 09:55:07;;;;;;;136.80;54.40;;;;;;;-5.06;80.51;98496.33;421932;1309;111149;-39
2021/12/26 10:05:11;;;;;;;175.80;68.20;;;;;;;-5.03;80.44;98492.88;421623;1309;107844;-40
2021/12/26 10:15:14;;;;;;;206.10;79.70;;;;;;;-4.87;80.56;98493.25;421736;1309;97942;-40
2021/12/26 10:25:18;;;;;;;101.40;41.60;;;;;;;-4.70;80.31;98483.16;421901;1310;96985;-39
2021/12/26 10:35:21;;;;;;;65.90;26.30;;;;;;;-4.60;80.10;98477.91;421700;1309;97585;-41
2021/12/26 10:45:26;;;;;;;70.20;28.30;;;;;;;-4.44;79.97;98472.50;421793;1309;108893;-39
2021/12/26 10:55:34;;;;;;;76.50;33.70;;;;;;;-4.42;79.94;98472.46;421705;1310;97977;-39
2021/12/26 11:05:43;;;;;;;72.30;31.00;;;;;;;-4.27;79.75;98462.91;421882;1309;111257;-39
2021/12/26 11:26:02;;;;;;;89.50;35.70;;;;;;;-3.82;79.69;98470.09;421628;1309;109017;-39
2021/12/26 11:36:09;;;;;;;93.70;38.50;;;;;;;-3.77;79.55;98463.37;421844;1309;97952;-41
2021/12/26 11:46:16;;;;;;;91.20;37.30;;;;;;;-3.70;79.40;98471.00;421836;1309;111904;-40
2021/12/26 11:56:21;;;;;;;104.80;44.30;;;;;;;-3.69;78.96;98465.96;421856;1309;108950;-40
2021/12/26 12:16:30;;;;;;;60.90;23.00;;;;;;;-3.71;78.71;98463.50;421697;1309;111006;-41
2021/12/26 12:26:49;;;;;;;59.60;22.10;;;;;;;-3.78;77.81;98470.34;421948;1309;107465;-40
2021/12/26 12:47:08;;;;;;;70.30;28.40;;;;;;;-3.76;77.49;98467.77;421878;1309;111150;-39
2021/12/26 12:57:34;;;;;;;76.60;32.20;;;;;;;-3.91;77.12;98460.46;421924;1309;108975;-40
2021/12/26 13:07:38;;;;;;;96.60;34.60;;;;;;;-3.92;77.37;98454.52;422075;1309;97964;-40
2021/12/26 13:17:45;;;;;;;100.60;38.90;;;;;;;-3.93;77.51;98449.78;422102;1309;109562;-40
2021/12/26 13:27:48;;;;;;;95.70;36.10;;;;;;;-3.95;77.02;98451.70;421993;1309;97530;-39
2021/12/26 13:37:56;;;;;;;97.80;40.60;;;;;;;-4.02;77.16;98452.67;422143;1309;110905;-39
2021/12/26 13:48:01;;;;;;;122.20;43.20;;;;;;;-4.12;76.98;98444.60;422243;1309;108833;-39
2021/12/26 13:58:07;;;;;;;97.60;35.40;;;;;;;-4.28;76.99;98452.84;421851;1309;98732;-39
2021/12/26 14:08:13;;;;;;;80.40;30.90;;;;;;;-4.48;76.85;98457.20;421987;1312;111163;-39
2021/12/26 14:18:18;;;;;;;106.40;33.90;;;;;;;-4.71;76.73;98468.71;422099;1309;108384;-39
2021/12/26 14:28:22;;;;;;;83.70;29.20;;;;;;;-5.04;76.58;98478.36;422055;1307;97957;-42
2021/12/26 14:38:26;;;;;;;66.10;26.30;;;;;;;-5.37;76.49;98485.44;422146;1309;111111;-40
2021/12/26 14:48:32;;;;;;;76.40;30.90;;;;;;;-5.77;76.70;98491.06;422161;1309;108927;-39
2021/12/26 14:58:41;;;;;;;82.90;35.20;;;;;;;-6.07;76.91;98492.17;422003;1309;97572;-40
2021/12/26 15:08:44;;;;;;;;;;;;;;;-6.49;76.75;98479.48;418169;1309;5761384;-40
2021/12/26 15:18:57;;;;;;;92.90;40.60;;;;;;;-6.96;76.90;98487.80;422260;1310;97933;-40
2021/12/26 15:29:03;;;;;;;100.70;40.40;;;;;;;-7.15;77.12;98489.30;421981;1309;111167;-40
2021/12/26 15:49:19;;;;;;;91.70;42.50;;;;;;;-7.90;76.99;98500.58;422084;1310;98057;-41
2021/12/26 15:59:23;;;;;;;108.00;47.90;;;;;;;-8.32;76.81;98501.79;421989;1309;108244;-42
2021/12/26 16:09:26;;;;;;;108.30;47.60;;;;;;;-8.67;77.08;98498.43;422242;1309;97945;-40
2021/12/26 16:19:31;;;;;;;103.40;47.60;;;;;;;-8.83;77.21;98505.91;422258;1309;111261;-40
2021/12/26 16:29:34;;;;;;;98.80;49.20;;;;;;;-8.89;77.31;98514.20;422011;1309;108758;-40
2021/12/26 16:39:41;;;;;;;110.70;51.40;;;;;;;-9.13;76.88;98521.89;422063;1313;97960;-40
2021/12/26 16:49:47;;;;;;;103.00;45.90;;;;;;;-9.56;76.68;98528.52;421901;1309;108865;-40
2021/12/26 16:59:51;;;;;;;120.30;55.90;;;;;;;-9.76;77.33;98524.79;422037;1313;97538;-39
2021/12/26 17:09:55;;;;;;;202.60;80.30;;;;;;;-9.78;77.33;98520.27;422333;1310;109933;-41
2021/12/26 17:19:59;;;;;;;147.30;65.70;;;;;;;-9.63;78.00;98520.85;421943;1309;108866;-39
2021/12/26 17:30:08;;;;;;;122.30;53.40;;;;;;;-9.35;78.47;98530.61;420331;1316;97881;-40
2021/12/26 17:40:11;;;;;;;104.60;47.70;;;;;;;-9.06;78.62;98530.45;422176;1310;109120;-40
2021/12/26 17:50:16;;;;;;;108.60;51.90;;;;;;;-8.86;78.63;98529.52;421912;1313;98595;-40
2021/12/26 18:00:20;;;;;;;116.00;51.20;;;;;;;-8.75;78.66;98537.81;422293;1310;111614;-40
2021/12/26 18:10:27;;;;;;;135.20;61.00;;;;;;;-8.88;78.39;98535.84;422061;1310;108873;-40
2021/12/26 18:30:35;;;;;;;153.50;65.10;;;;;;;-9.58;78.03;98538.89;422009;1310;109061;-40
2021/12/26 18:40:40;;;;;;;169.10;71.50;;;;;;;-9.66;78.25;98543.70;422182;1310;97971;-39
2021/12/26 18:50:50;;;;;;;169.00;75.30;;;;;;;-9.75;78.13;98546.39;422015;1316;110810;-40
2021/12/26 19:00:54;;;;;;;154.60;71.70;;;;;;;-9.98;77.98;98538.03;421981;1315;108799;-40
2021/12/26 19:10:57;;;;;;;163.50;74.50;;;;;;;-10.18;77.75;98541.14;422225;1315;97553;-39
2021/12/26 19:21:06;;;;;;;151.00;68.40;;;;;;;-10.27;77.97;98537.77;422037;1316;109090;-39
2021/12/26 19:31:12;;;;;;;122.20;58.50;;;;;;;-10.41;78.00;98531.77;422042;1309;97949;-40
2021/12/26 19:41:17;;;;;;;135.40;61.10;;;;;;;-10.48;78.20;98526.11;422173;1316;111693;-39
2021/12/26 19:51:21;;;;;;;125.30;54.20;;;;;;;-10.46;78.23;98528.17;421971;1311;107869;-39
2021/12/26 20:01:25;;;;;;;124.40;56.00;;;;;;;-10.73;77.99;98521.04;422151;1316;98053;-42
2021/12/26 20:21:35;;;;;;;146.60;60.40;;;;;;;-10.83;78.31;98513.71;422613;1312;96744;-40
2021/12/26 20:31:39;;;;;;;133.80;58.60;;;;;;;-10.92;78.18;98516.70;422383;1314;111548;-39
2021/12/26 20:41:46;;;;;;;142.70;60.30;;;;;;;-11.20;77.76;98508.27;422034;1312;108898;-41
2021/12/26 20:51:50;;;;;;;177.40;72.20;;;;;;;-11.56;77.84;98503.35;422309;1309;97966;-41
2021/12/26 21:11:58;;;;;;;246.10;99.00;;;;;;;-11.58;77.86;98519.30;422727;1308;97524;-39
2021/12/26 21:22:01;;;;;;;338.90;136.70;;;;;;;-11.65;77.86;98522.80;422517;1310;111246;-40
2021/12/26 21:32:07;;;;;;;333.00;127.80;;;;;;;-11.80;77.84;98522.88;422624;1306;108922;-41
2021/12/26 21:42:12;;;;;;;309.80;124.50;;;;;;;-11.63;78.40;98526.59;422376;1306;97967;-40
2021/12/26 21:52:16;;;;;;;293.60;119.20;;;;;;;-11.57;77.94;98534.72;422318;1312;108969;-44
2021/12/26 22:02:20;;;;;;;288.20;110.60;;;;;;;-11.65;78.00;98525.68;422235;1307;97539;-40
2021/12/26 22:12:24;;;;;;;322.60;131.40;;;;;;;-11.94;77.14;98522.89;422135;1308;110036;-42
2021/12/26 22:22:28;;;;;;;320.20;130.90;;;;;;;-12.17;77.51;98534.27;422035;1308;108542;-40
2021/12/26 22:32:31;;;;;;;340.60;143.40;;;;;;;-12.23;77.35;98539.19;422641;1306;96652;-40
2021/12/26 22:42:36;;;;;;;349.90;142.80;;;;;;;-12.47;77.46;98530.78;422336;1310;107679;-41
2021/12/26 22:52:40;;;;;;;338.20;139.30;;;;;;;-12.38;77.70;98511.19;422550;1306;97552;-40
2021/12/26 23:02:44;;;;;;;335.60;139.30;;;;;;;-12.29;77.65;98502.90;422311;1313;109939;-40
2021/12/26 23:12:53;;;;;;;318.90;133.70;;;;;;;-12.27;77.92;98496.65;417848;1309;5705684;-41
2021/12/26 23:22:56;;;;;;;279.50;119.10;;;;;;;-12.21;78.08;98485.94;422111;1309;97589;-38
2021/12/26 23:33:00;;;;;;;284.10;110.70;;;;;;;-12.02;77.96;98486.64;422381;1306;108888;-41
2021/12/26 23:53:08;;;;;;;273.00;107.10;;;;;;;-11.76;78.03;98460.05;422550;1306;111203;-40
